Kenna, New Mexico
Current Conditions -  °F | °C
As of 2:56 PM on Monday 22 Dec 2014 (Local Time) from K4MR Reporting Station
Clear Clear  
Wind Chill: 51°   Ceiling: Unl
Heat Index: 51°   Visibility: 10mi
Dew Point: 25°   Wind: 14mph
Humidity: 36%   Direction: 90°E
Pressure: 29.66"   Gusts: 22mph
Location:  33.84°N, 103.77°W
Report Text: K4MR 222156Z AUTO 09012G19KT 10SM CLR 11/M04 A2966 RMK AO2 SLP018 T01051041
Loading
Personal Weather Stations






























Interactive Weather Map New forecast layout! Learn more

10-Day Weather Forecast

Advertisements
Track Severe Weather on mobile